Nearby METAR Reports

 

KDFW - Dallas/Ft Worth, Texas, USA
Distance from station: SSE 10mi, 16km
Updated: Wed, 21-Aug-2019 6:53am CDT
Clear
Clear
 Wind from S
Wind: S 7 mph , 11 km/h
Temperature: 79°F , 26°C
Dew Point: 70°F , 21°C
Humidity: 74%
Barometer: 29.97 inHg , 1014.9 hPa
Clouds: Clear
Visibility: 10 miles , 16 km
2019/08/21 11:53 KDFW 211153Z 19006KT 10SM CLR 26/21 A2997 RMK AO2 SLP138 T02610206 10300 20261 53002 $
KDTO - Denton, Texas, USA
Distance from station: NNW 13mi, 21km
Updated: Wed, 21-Aug-2019 6:53am CDT
Clear
Clear
 Wind from S
Wind: S 5 mph , 7 km/h
Temperature: 79°F , 26°C
Dew Point: 70°F , 21°C
Humidity: 74%
Barometer: 29.98 inHg , 1015.2 hPa
Clouds: Clear
Visibility: 10 miles , 16 km
2019/08/21 11:53 KDTO 211153Z 18004KT 10SM CLR 26/21 A2998 RMK AO2 SLP142 T02560211 10294 20244 53001
 
KAFW - Ft Worth/Allianc, Texas, USA
Distance from station: WSW 14mi, 22km
Updated: Wed, 21-Aug-2019 6:53am CDT
Clear
Clear
 Wind from SSW
Wind: SSW 5 mph , 7 km/h
Temperature: 81°F , 27°C
Heat Index: 85°F , 29°C
Dew Point: 70°F , 21°C
Humidity: 70%
Barometer: 29.98 inHg , 1015.2 hPa
Clouds: Clear
Visibility: 10 miles , 16 km
2019/08/21 11:53 KAFW 211153Z 21004KT 10SM CLR 27/21 A2998 RMK AO2 SLP132 T02720206 10306 20267 53002
KADS - Dallas/Addison, Texas, USA
Distance from station: ESE 17mi, 27km
Updated: Wed, 21-Aug-2019 6:47am CDT
Clear
Clear
 Wind from S
Wind: S 6 mph , 9 km/h
Temperature: 82°F , 28°C
Heat Index: 86°F , 30°C
Dew Point: 70°F , 21°C
Humidity: 66%
Barometer: 30.00 inHg , 1015.9 hPa
Clouds: Clear
Visibility: 10 miles , 16 km
2019/08/21 11:47 KADS 211147Z 17005KT 10SM SKC 28/21 A3000
 
KDAL - Dallas/Love Fld, Texas, USA
Distance from station: SE 19mi, 30km
Updated: Wed, 21-Aug-2019 6:53am CDT
Clear
Clear
 Wind from calm
Wind: Calm
Temperature: 82°F , 28°C
Heat Index: 86°F , 30°C
Dew Point: 70°F , 21°C
Humidity: 66%
Barometer: 29.98 inHg , 1015.2 hPa
Clouds: Clear
Visibility: 10 miles , 16 km
2019/08/21 11:53 KDAL 211153Z 00000KT 10SM CLR 28/21 A2998 RMK AO2 SLP144 T02830211 10311 20278 53004 $
KFTW - Fort Worth, Texas, USA
Distance from station: SW 21mi, 34km
Updated: Wed, 21-Aug-2019 6:53am CDT
Clear
Clear
 Wind from SW
Wind: SW 5 mph , 7 km/h
Temperature: 79°F , 26°C
Dew Point: 70°F , 21°C
Humidity: 74%
Barometer: 29.97 inHg , 1014.9 hPa
Clouds: Clear
Visibility: 10 miles , 16 km
2019/08/21 11:53 KFTW 211153Z 22004KT 10SM CLR 26/21 A2997 RMK AO2 SLP139 T02560211 10294 20256 53000
 
KGPM - Grand Prairie, Texas, USA
Distance from station: S 23mi, 37km
Updated: Wed, 21-Aug-2019 6:55am CDT
Clear
Clear
 Wind from S
Wind: S 3 mph , 6 km/h
Temperature: 79°F , 26°C
Dew Point: 68°F , 20°C
Humidity: 70%
Barometer: 29.99 inHg , 1015.6 hPa
Clouds: Clear
Visibility: 10 miles , 16 km
2019/08/21 11:55 KGPM 211155Z AUTO 19003KT 10SM CLR 26/20 A2999 RMK AO2 T02630202 10295 20263
KGKY - Arlington, Texas, USA
Distance from station: S 25mi, 41km
Updated: Wed, 21-Aug-2019 6:53am CDT
Clear
Clear
 Wind from S
Wind: S 5 mph , 7 km/h
Temperature: 81°F , 27°C
Heat Index: 85°F , 29°C
Dew Point: 70°F , 21°C
Humidity: 70%
Barometer: 29.98 inHg , 1015.2 hPa
Clouds: Clear
Visibility: 10 miles , 16 km
2019/08/21 11:53 KGKY 211153Z 19004KT 10SM CLR 27/21 A2998 RMK AO2 SLP140 T02670211 10289 20261 55002